createdAt,value
2023-02-27T00:02:08.160Z,0.76
2023-02-27T00:04:34.546Z,0.80
2023-02-27T00:07:00.945Z,0.68
2023-02-27T00:09:27.300Z,0.74
2023-02-27T00:11:53.638Z,0.80
2023-02-27T00:14:20.003Z,0.69
2023-02-27T00:16:46.346Z,0.74
2023-02-27T00:19:12.729Z,0.71
2023-02-27T00:21:39.080Z,0.66
2023-02-27T00:24:05.466Z,0.55
2023-02-27T00:26:31.852Z,0.61
2023-02-27T00:28:58.246Z,0.60
2023-02-27T00:31:24.936Z,0.57
2023-02-27T00:33:51.567Z,0.69
2023-02-27T00:36:17.903Z,0.76
2023-02-27T00:38:44.245Z,0.79
2023-02-27T00:41:10.574Z,0.50
2023-02-27T00:43:36.931Z,0.53
2023-02-27T00:46:03.352Z,0.54
2023-02-27T00:48:29.727Z,0.48
2023-02-27T00:50:56.082Z,0.55
2023-02-27T00:53:22.431Z,0.56
2023-02-27T00:55:48.812Z,0.61
2023-02-27T00:58:15.202Z,0.65
2023-02-27T01:00:41.615Z,0.89
2023-02-27T01:03:08.011Z,0.65
2023-02-27T01:05:34.398Z,0.49
2023-02-27T01:08:00.801Z,0.66
2023-02-27T01:10:27.195Z,0.63
2023-02-27T01:12:53.552Z,0.66
2023-02-27T01:15:19.941Z,0.51
2023-02-27T01:17:46.330Z,0.41
2023-02-27T01:20:12.685Z,0.52
2023-02-27T01:22:39.020Z,0.38
2023-02-27T01:25:05.406Z,0.43
2023-02-27T01:27:31.761Z,0.60
2023-02-27T01:29:58.161Z,0.55
2023-02-27T01:32:24.618Z,0.58
2023-02-27T01:34:51.039Z,0.61
2023-02-27T01:37:17.634Z,0.56
2023-02-27T01:39:44.098Z,0.73
2023-02-27T01:42:12.928Z,0.83
2023-02-27T01:44:39.513Z,0.83
2023-02-27T01:47:05.908Z,0.80
2023-02-27T01:49:32.272Z,0.72
2023-02-27T01:51:58.647Z,0.89
2023-02-27T01:54:24.994Z,0.89
2023-02-27T01:56:51.344Z,0.91
2023-02-27T01:59:17.724Z,0.77
2023-02-27T02:01:44.138Z,0.78
2023-02-27T02:04:10.511Z,0.93
2023-02-27T02:06:36.919Z,0.79
2023-02-27T02:09:03.320Z,0.80
2023-02-27T02:11:29.679Z,0.49
2023-02-27T02:13:56.063Z,0.70
2023-02-27T02:16:22.511Z,0.45
2023-02-27T02:18:48.906Z,0.61
2023-02-27T02:21:15.309Z,0.66
2023-02-27T02:23:41.654Z,0.66
2023-02-27T02:26:08.021Z,0.70
2023-02-27T02:28:34.365Z,0.98
2023-02-27T02:31:00.818Z,0.83
2023-02-27T02:33:27.220Z,0.85
2023-02-27T02:35:53.618Z,0.64
2023-02-27T02:38:19.980Z,0.78
2023-02-27T02:40:46.355Z,0.77
2023-02-27T02:43:12.728Z,0.85
2023-02-27T02:45:39.093Z,0.90
2023-02-27T02:48:05.479Z,0.88
2023-02-27T02:50:31.844Z,0.82
2023-02-27T02:52:59.246Z,0.67
2023-02-27T02:55:25.785Z,0.62
2023-02-27T02:57:52.203Z,0.66
2023-02-27T03:00:18.594Z,0.77
2023-02-27T03:02:44.970Z,0.62
2023-02-27T03:05:11.338Z,0.60
2023-02-27T03:07:37.731Z,0.70
2023-02-27T03:10:04.142Z,0.76
2023-02-27T03:12:30.529Z,0.91
2023-02-27T03:14:56.888Z,0.59
2023-02-27T03:17:23.221Z,0.80
2023-02-27T03:19:49.568Z,0.46
2023-02-27T03:22:15.919Z,0.51
2023-02-27T03:24:42.320Z,0.58
2023-02-27T03:27:08.704Z,0.59
2023-02-27T03:29:35.086Z,0.53
2023-02-27T03:32:01.558Z,0.61
2023-02-27T03:34:27.935Z,0.58
2023-02-27T03:36:54.319Z,0.36
2023-02-27T03:39:20.681Z,0.53
2023-02-27T03:41:47.056Z,0.63
2023-02-27T03:44:13.449Z,0.82
2023-02-27T03:46:39.852Z,0.55
2023-02-27T03:49:06.242Z,0.74
2023-02-27T03:51:32.637Z,0.55
2023-02-27T03:53:58.980Z,0.80
2023-02-27T03:56:25.382Z,0.61
2023-02-27T03:58:51.758Z,0.69
2023-02-27T04:01:18.159Z,0.64
2023-02-27T04:03:44.519Z,0.59
2023-02-27T04:06:10.871Z,0.49
2023-02-27T04:08:37.222Z,0.54
2023-02-27T04:11:03.603Z,0.57
2023-02-27T04:13:29.998Z,0.68
2023-02-27T04:15:56.357Z,0.75
2023-02-27T04:18:22.731Z,0.73
2023-02-27T04:20:49.083Z,0.60
2023-02-27T04:23:15.464Z,0.46
2023-02-27T04:25:41.835Z,0.34
2023-02-27T04:28:08.205Z,0.30
2023-02-27T04:30:34.551Z,0.27
2023-02-27T04:33:00.930Z,0.33
2023-02-27T04:35:27.337Z,0.20
2023-02-27T04:37:53.693Z,0.20
2023-02-27T04:40:20.073Z,0.26
2023-02-27T04:42:46.427Z,0.18
2023-02-27T04:45:15.129Z,0.30
2023-02-27T04:47:41.656Z,0.58
2023-02-27T04:50:08.000Z,0.39
2023-02-27T04:52:34.372Z,0.55
2023-02-27T04:55:00.709Z,0.54
2023-02-27T04:57:27.106Z,0.51
2023-02-27T04:59:53.489Z,0.73
2023-02-27T05:02:20.014Z,0.79
2023-02-27T05:04:46.431Z,0.75
2023-02-27T05:07:12.818Z,0.59
2023-02-27T05:09:39.177Z,0.51
2023-02-27T05:12:05.539Z,0.53
2023-02-27T05:14:31.885Z,0.46
2023-02-27T05:16:58.283Z,0.24
2023-02-27T05:19:24.649Z,0.17
2023-02-27T05:21:51.012Z,0.23
2023-02-27T05:24:17.403Z,0.32
2023-02-27T05:26:43.752Z,0.29
2023-02-27T05:29:10.087Z,0.32
2023-02-27T05:31:36.501Z,0.26
2023-02-27T05:34:02.912Z,0.52
2023-02-27T05:36:29.290Z,0.52
2023-02-27T05:38:55.642Z,0.61
2023-02-27T05:41:22.015Z,0.55
2023-02-27T05:43:48.369Z,0.64
2023-02-27T05:46:14.820Z,0.80
2023-02-27T05:48:41.184Z,0.45
2023-02-27T05:51:07.526Z,0.33
2023-02-27T05:53:33.864Z,0.47
2023-02-27T05:56:00.206Z,0.38
2023-02-27T05:58:26.550Z,0.26
2023-02-27T06:00:52.929Z,0.36
2023-02-27T06:03:19.319Z,0.42
2023-02-27T06:05:45.870Z,0.40
2023-02-27T06:08:12.271Z,0.36
2023-02-27T06:10:38.639Z,0.39
2023-02-27T06:13:05.019Z,0.34
2023-02-27T06:15:31.406Z,0.38
2023-02-27T06:17:57.786Z,0.58
2023-02-27T06:20:24.178Z,0.42
2023-02-27T06:22:50.572Z,0.56
2023-02-27T06:25:17.000Z,0.50
2023-02-27T06:27:43.392Z,0.66
2023-02-27T06:30:09.763Z,0.63
2023-02-27T06:32:36.100Z,0.56
2023-02-27T06:35:02.520Z,0.91
2023-02-27T06:37:28.867Z,0.67
2023-02-27T06:39:55.252Z,0.63
2023-02-27T06:42:21.599Z,0.46
2023-02-27T06:44:47.981Z,0.73
2023-02-27T06:47:14.332Z,0.95
2023-02-27T06:49:40.709Z,0.84
2023-02-27T06:52:07.054Z,0.82
2023-02-27T06:54:33.447Z,1.00
2023-02-27T06:56:59.796Z,0.58
2023-02-27T06:59:26.167Z,0.70
2023-02-27T07:01:52.566Z,0.78
2023-02-27T07:04:18.973Z,0.91
2023-02-27T07:07:32.955Z,0.70
2023-02-27T07:09:31.659Z,0.87
2023-02-27T07:11:57.999Z,0.77
2023-02-27T07:14:24.387Z,1.09
2023-02-27T07:16:50.762Z,1.02
2023-02-27T07:19:17.097Z,0.95
2023-02-27T07:21:43.442Z,1.12
2023-02-27T07:24:09.838Z,1.18
2023-02-27T07:26:36.230Z,1.17
2023-02-27T07:29:02.589Z,1.26
2023-02-27T07:31:29.128Z,1.44
2023-02-27T07:33:55.586Z,1.40
2023-02-27T07:36:21.940Z,1.45
2023-02-27T07:38:48.345Z,1.28
2023-02-27T07:41:29.655Z,1.01
2023-02-27T07:43:56.877Z,1.15
2023-02-27T07:46:23.315Z,1.10
2023-02-27T07:48:49.702Z,1.10
2023-02-27T07:51:16.059Z,1.11
2023-02-27T07:53:42.453Z,1.23
2023-02-27T07:56:08.814Z,1.23
2023-02-27T07:58:35.207Z,1.26
2023-02-27T08:01:01.584Z,1.35
2023-02-27T08:03:27.966Z,1.52
2023-02-27T08:05:54.384Z,1.77
2023-02-27T08:08:20.759Z,1.57
2023-02-27T08:10:47.147Z,1.51
2023-02-27T08:13:13.538Z,1.61
2023-02-27T08:15:39.921Z,1.67
2023-02-27T08:18:06.353Z,1.72
2023-02-27T08:20:32.708Z,1.66
2023-02-27T08:22:59.089Z,1.64
2023-02-27T08:25:25.467Z,1.65
2023-02-27T08:27:51.863Z,1.43
2023-02-27T08:30:18.252Z,1.50
2023-02-27T08:32:44.792Z,1.77
2023-02-27T08:35:11.186Z,1.98
2023-02-27T08:37:37.580Z,1.79
2023-02-27T08:40:03.931Z,1.93
2023-02-27T08:42:30.306Z,1.74
2023-02-27T08:44:56.669Z,1.92
2023-02-27T08:47:23.094Z,2.03
2023-02-27T08:49:49.514Z,2.01
2023-02-27T08:52:15.854Z,2.10
2023-02-27T08:54:42.188Z,2.10
2023-02-27T08:57:08.609Z,1.96
2023-02-27T08:59:35.010Z,1.97
2023-02-27T09:02:01.356Z,2.06
2023-02-27T09:04:27.704Z,2.10
2023-02-27T09:06:54.094Z,1.88
2023-02-27T09:09:20.530Z,1.94
2023-02-27T09:11:46.928Z,1.98
2023-02-27T09:14:13.349Z,2.22
2023-02-27T09:16:39.851Z,2.09
2023-02-27T09:19:06.231Z,2.00
2023-02-27T09:21:32.625Z,1.90
2023-02-27T09:24:02.641Z,1.88
2023-02-27T09:26:44.982Z,2.39
2023-02-27T09:29:12.389Z,2.32
2023-02-27T09:31:38.836Z,2.30
2023-02-27T09:34:05.237Z,2.42
2023-02-27T09:36:31.611Z,2.60
2023-02-27T09:38:58.021Z,2.39
2023-02-27T09:41:24.541Z,2.62
2023-02-27T09:43:50.950Z,2.51
2023-02-27T09:46:17.415Z,2.56
2023-02-27T09:48:43.796Z,2.49
2023-02-27T09:51:10.149Z,2.87
2023-02-27T09:53:36.499Z,2.87
2023-02-27T09:56:03.973Z,2.83
2023-02-27T09:58:30.368Z,3.13
2023-02-27T10:00:56.722Z,2.84
2023-02-27T10:03:23.171Z,2.86
2023-02-27T10:05:49.563Z,3.12
2023-02-27T10:08:15.960Z,3.02
2023-02-27T10:10:42.345Z,3.35
2023-02-27T10:13:08.706Z,3.02
2023-02-27T10:15:35.113Z,2.97
2023-02-27T10:18:07.547Z,3.25
2023-02-27T10:20:43.017Z,3.47
2023-02-27T10:23:09.374Z,2.91
2023-02-27T10:25:35.716Z,3.28
2023-02-27T10:28:02.084Z,2.97
2023-02-27T10:30:30.905Z,3.18
2023-02-27T10:32:58.260Z,3.02
2023-02-27T10:35:24.657Z,3.23
2023-02-27T10:37:51.018Z,3.26
2023-02-27T10:40:17.400Z,3.13
2023-02-27T10:42:43.784Z,3.36
2023-02-27T10:45:10.172Z,3.47
2023-02-27T10:47:36.518Z,3.84
2023-02-27T10:50:02.906Z,3.48
2023-02-27T10:52:29.244Z,3.54
2023-02-27T10:54:55.633Z,3.76
2023-02-27T10:57:22.015Z,3.79
2023-02-27T10:59:48.378Z,3.93
2023-02-27T11:02:14.763Z,3.92
2023-02-27T11:04:41.158Z,3.95
2023-02-27T11:07:07.578Z,3.97
2023-02-27T11:09:33.953Z,3.89
2023-02-27T11:12:00.314Z,4.30
2023-02-27T11:14:26.889Z,3.86
2023-02-27T11:16:53.283Z,4.01
2023-02-27T11:19:19.666Z,3.72
2023-02-27T11:21:46.070Z,3.83
2023-02-27T11:24:12.428Z,3.85
2023-02-27T11:26:38.892Z,4.33
2023-02-27T11:29:05.286Z,4.21
2023-02-27T11:31:31.775Z,4.05
2023-02-27T11:33:58.197Z,4.34
2023-02-27T11:36:24.630Z,4.28
2023-02-27T11:38:50.995Z,3.89
2023-02-27T11:41:17.345Z,3.96
2023-02-27T11:43:43.723Z,4.26
2023-02-27T11:46:44.160Z,4.25
2023-02-27T11:48:56.510Z,4.15
2023-02-27T11:51:22.926Z,4.43
2023-02-27T11:53:49.318Z,4.10
2023-02-27T11:56:15.698Z,4.50
2023-02-27T11:58:42.096Z,4.44
2023-02-27T12:01:08.438Z,4.35
2023-02-27T12:03:34.862Z,4.48
2023-02-27T12:06:01.262Z,4.35
2023-02-27T12:08:27.622Z,4.24
2023-02-27T12:10:57.238Z,4.72
2023-02-27T12:13:25.700Z,4.53
2023-02-27T12:15:52.106Z,4.10
2023-02-27T12:18:18.526Z,4.49
2023-02-27T12:20:44.919Z,4.42
2023-02-27T12:23:11.258Z,3.98
2023-02-27T12:25:37.640Z,3.94
2023-02-27T12:28:03.994Z,4.37
2023-02-27T12:30:30.360Z,4.34
2023-02-27T12:32:56.736Z,4.03
2023-02-27T12:35:23.096Z,4.03
2023-02-27T12:37:49.464Z,4.03
2023-02-27T12:40:15.825Z,3.61
2023-02-27T12:42:42.202Z,3.50
2023-02-27T12:45:08.571Z,3.72
2023-02-27T12:47:35.000Z,3.83
2023-02-27T12:50:01.404Z,3.69
2023-02-27T12:52:28.020Z,3.61
2023-02-27T12:54:54.413Z,3.75
2023-02-27T12:57:20.797Z,3.87
2023-02-27T12:59:47.244Z,4.14
2023-02-27T13:02:13.612Z,4.03
2023-02-27T13:04:39.999Z,3.92
2023-02-27T13:07:06.387Z,4.20
2023-02-27T13:09:32.768Z,3.80
2023-02-27T13:11:59.116Z,3.74
2023-02-27T13:14:25.488Z,3.79
2023-02-27T13:16:51.926Z,3.85
2023-02-27T13:19:18.306Z,4.05
2023-02-27T13:21:44.643Z,3.92
2023-02-27T13:24:10.975Z,4.31
2023-02-27T13:26:37.382Z,4.24
2023-02-27T13:29:03.736Z,4.59
2023-02-27T13:31:30.459Z,4.42
2023-02-27T13:33:57.074Z,4.31
2023-02-27T13:36:24.585Z,4.11
2023-02-27T13:38:51.066Z,4.02
2023-02-27T13:41:17.440Z,4.21
2023-02-27T13:43:52.104Z,3.92
2023-02-27T13:46:19.116Z,4.28
2023-02-27T13:48:45.538Z,4.29
2023-02-27T13:51:11.971Z,4.63
2023-02-27T13:53:38.383Z,4.81
2023-02-27T13:56:04.731Z,4.06
2023-02-27T13:58:31.120Z,4.39
2023-02-27T14:00:57.490Z,4.08
2023-02-27T14:03:23.887Z,4.24
2023-02-27T14:05:50.274Z,4.52
2023-02-27T14:08:16.689Z,4.52
2023-02-27T14:10:43.104Z,4.23
2023-02-27T14:13:09.459Z,4.35
2023-02-27T14:15:35.946Z,3.89
2023-02-27T14:18:14.215Z,4.04
2023-02-27T14:20:46.587Z,4.03
2023-02-27T14:23:12.976Z,4.32
2023-02-27T14:25:39.337Z,3.99
2023-02-27T14:28:05.713Z,4.41
2023-02-27T14:30:32.110Z,3.81
2023-02-27T14:32:58.451Z,3.76
2023-02-27T14:35:24.853Z,3.66
2023-02-27T14:37:51.200Z,3.67
2023-02-27T14:40:28.071Z,3.40
2023-02-27T14:42:55.977Z,3.59
2023-02-27T14:45:24.306Z,3.71
2023-02-27T14:47:50.957Z,3.79
2023-02-27T14:50:17.349Z,3.78
2023-02-27T14:52:43.722Z,3.68
2023-02-27T14:55:10.072Z,3.95
2023-02-27T14:57:36.485Z,3.68
2023-02-27T15:00:02.915Z,3.52
2023-02-27T15:02:29.309Z,3.53
2023-02-27T15:04:55.781Z,3.38
2023-02-27T15:07:22.202Z,3.45
2023-02-27T15:09:48.602Z,3.57
2023-02-27T15:12:15.001Z,3.47
2023-02-27T15:14:41.389Z,3.48
2023-02-27T15:17:07.814Z,3.46
2023-02-27T15:19:34.173Z,3.42
2023-02-27T15:22:00.583Z,3.46
2023-02-27T15:24:26.943Z,3.23
2023-02-27T15:26:53.544Z,3.40
2023-02-27T15:29:19.879Z,3.31
2023-02-27T15:31:46.341Z,3.28
2023-02-27T15:34:12.792Z,3.24
2023-02-27T15:36:39.155Z,3.50
2023-02-27T15:39:05.534Z,3.47
2023-02-27T15:41:31.980Z,3.39
2023-02-27T15:43:58.380Z,3.19
2023-02-27T15:46:24.805Z,3.23
2023-02-27T15:48:51.181Z,2.88
2023-02-27T15:51:17.521Z,2.94
2023-02-27T15:53:43.907Z,3.19
2023-02-27T15:56:10.248Z,3.17
2023-02-27T15:58:36.648Z,3.04
2023-02-27T16:01:03.037Z,2.97
2023-02-27T16:03:29.396Z,2.69
2023-02-27T16:05:55.769Z,2.68
2023-02-27T16:08:22.173Z,2.67
2023-02-27T16:10:48.550Z,2.76
2023-02-27T16:13:14.900Z,2.41
2023-02-27T16:15:41.255Z,2.39
2023-02-27T16:18:07.642Z,2.39
2023-02-27T16:20:34.071Z,2.57
2023-02-27T16:23:00.426Z,2.63
2023-02-27T16:25:26.777Z,2.29
2023-02-27T16:27:53.172Z,2.25
2023-02-27T16:30:19.528Z,2.29
2023-02-27T16:32:45.964Z,2.19
2023-02-27T16:35:12.420Z,2.38
2023-02-27T16:37:38.787Z,2.29
2023-02-27T16:40:05.156Z,2.23
2023-02-27T16:42:31.563Z,2.25
2023-02-27T16:44:57.973Z,2.08
2023-02-27T16:47:24.325Z,2.11
2023-02-27T16:49:50.675Z,2.01
2023-02-27T16:52:17.093Z,2.19
2023-02-27T16:54:43.503Z,2.27
2023-02-27T16:57:09.883Z,2.36
2023-02-27T16:59:36.294Z,2.23
2023-02-27T17:02:02.745Z,2.10
2023-02-27T17:04:29.176Z,1.83
2023-02-27T17:06:55.602Z,1.98
2023-02-27T17:09:21.976Z,2.00
2023-02-27T17:11:48.315Z,2.00
2023-02-27T17:14:14.722Z,1.95
2023-02-27T17:16:41.116Z,2.02
2023-02-27T17:19:07.539Z,1.79
2023-02-27T17:21:33.938Z,1.98
2023-02-27T17:24:00.295Z,1.87
2023-02-27T17:26:26.830Z,1.94
2023-02-27T17:28:53.380Z,1.84
2023-02-27T17:31:19.767Z,2.08
2023-02-27T17:33:46.171Z,2.14
2023-02-27T17:36:12.607Z,2.00
2023-02-27T17:38:38.964Z,1.97
2023-02-27T17:41:05.307Z,2.04
2023-02-27T17:43:31.690Z,1.95
2023-02-27T17:45:58.114Z,2.17
2023-02-27T17:48:24.507Z,2.13
2023-02-27T17:50:50.875Z,2.18
2023-02-27T17:53:17.234Z,2.03
2023-02-27T17:55:43.601Z,1.90
2023-02-27T17:58:09.986Z,1.75
2023-02-27T18:00:36.402Z,1.60
2023-02-27T18:03:02.829Z,1.73
2023-02-27T18:05:29.194Z,1.91
2023-02-27T18:07:55.645Z,1.74
2023-02-27T18:10:22.055Z,1.76
2023-02-27T18:12:48.419Z,1.80
2023-02-27T18:15:14.813Z,1.98
2023-02-27T18:17:41.218Z,1.66
2023-02-27T18:20:07.582Z,1.79
2023-02-27T18:22:33.958Z,1.55
2023-02-27T18:25:00.324Z,1.80
2023-02-27T18:27:26.736Z,1.82
2023-02-27T18:29:53.139Z,1.79
2023-02-27T18:32:19.573Z,1.83
2023-02-27T18:34:45.937Z,1.87
2023-02-27T18:37:12.275Z,1.44
2023-02-27T18:39:38.670Z,1.51
2023-02-27T18:42:06.722Z,1.61
2023-02-27T18:44:33.244Z,1.54
2023-02-27T18:46:59.669Z,1.60
2023-02-27T18:49:26.082Z,1.56
2023-02-27T18:51:52.472Z,1.56
2023-02-27T18:54:18.874Z,1.65
2023-02-27T18:56:45.239Z,1.61
2023-02-27T18:59:11.630Z,1.70
2023-02-27T19:01:37.986Z,1.45
2023-02-27T19:04:04.439Z,1.67
2023-02-27T19:06:31.060Z,1.94
2023-02-27T19:08:57.562Z,1.63
2023-02-27T19:11:23.945Z,1.55
2023-02-27T19:13:50.290Z,1.72
2023-02-27T19:16:16.721Z,1.53
2023-02-27T19:18:43.173Z,1.56
2023-02-27T19:21:09.538Z,1.60
2023-02-27T19:23:36.044Z,1.62
2023-02-27T19:26:02.476Z,1.63
2023-02-27T19:28:28.862Z,1.54
2023-02-27T19:30:55.247Z,1.74
2023-02-27T19:33:21.645Z,1.85
2023-02-27T19:35:48.061Z,1.79
2023-02-27T19:38:14.460Z,1.41
2023-02-27T19:40:40.805Z,1.56
2023-02-27T19:43:07.166Z,1.76
2023-02-27T19:45:33.524Z,1.63
2023-02-27T19:47:59.875Z,1.69
2023-02-27T19:50:26.314Z,1.56
2023-02-27T19:52:52.745Z,1.56
2023-02-27T19:55:19.106Z,1.42
2023-02-27T19:57:45.501Z,1.49
2023-02-27T20:00:11.856Z,1.40
2023-02-27T20:02:38.245Z,1.53
2023-02-27T20:05:04.644Z,1.49
2023-02-27T20:07:31.014Z,1.68
2023-02-27T20:09:57.421Z,1.59
2023-02-27T20:12:23.801Z,1.57
2023-02-27T20:14:50.186Z,1.66
2023-02-27T20:17:16.595Z,1.67
2023-02-27T20:19:42.938Z,1.70
2023-02-27T20:22:09.300Z,1.62
2023-02-27T20:24:35.683Z,1.36
2023-02-27T20:27:02.100Z,1.29
2023-02-27T20:29:28.538Z,1.44
2023-02-27T20:31:55.021Z,1.52
2023-02-27T20:34:21.426Z,1.64
2023-02-27T20:36:47.824Z,1.62
2023-02-27T20:39:14.231Z,1.52
2023-02-27T20:41:40.602Z,1.61
2023-02-27T20:44:06.968Z,1.57
2023-02-27T20:46:33.404Z,1.77
2023-02-27T20:48:59.795Z,1.89
2023-02-27T20:51:26.404Z,1.93
2023-02-27T20:53:53.213Z,1.88
2023-02-27T20:56:19.567Z,1.80
2023-02-27T20:58:45.956Z,2.18
2023-02-27T21:01:12.395Z,2.04
2023-02-27T21:03:39.151Z,1.57
2023-02-27T21:06:05.608Z,2.05
2023-02-27T21:08:31.998Z,1.95
2023-02-27T21:10:58.418Z,1.77
2023-02-27T21:13:25.104Z,1.71
2023-02-27T21:15:51.485Z,1.62
2023-02-27T21:18:17.913Z,2.08
2023-02-27T21:20:44.321Z,2.01
2023-02-27T21:23:10.677Z,2.17
2023-02-27T21:25:37.066Z,2.26
2023-02-27T21:28:03.481Z,1.96
2023-02-27T21:30:29.892Z,2.05
2023-02-27T21:32:56.962Z,2.38
2023-02-27T21:35:23.623Z,2.33
2023-02-27T21:37:50.225Z,2.04
2023-02-27T21:40:16.573Z,1.62
2023-02-27T21:42:42.958Z,2.18
2023-02-27T21:45:09.363Z,2.19
2023-02-27T21:47:35.727Z,2.21
2023-02-27T21:50:02.249Z,2.19
2023-02-27T21:52:28.637Z,1.86
2023-02-27T21:54:55.129Z,2.08
2023-02-27T21:57:21.492Z,1.79
2023-02-27T21:59:47.887Z,1.75
2023-02-27T22:02:14.235Z,1.75
2023-02-27T22:04:40.632Z,1.80
2023-02-27T22:07:07.041Z,1.65
2023-02-27T22:09:33.388Z,1.63
2023-02-27T22:11:59.737Z,1.92
2023-02-27T22:14:26.144Z,1.84
2023-02-27T22:16:52.514Z,1.71
2023-02-27T22:19:18.900Z,1.93
2023-02-27T22:21:45.250Z,1.90
2023-02-27T22:24:11.635Z,1.65
2023-02-27T22:26:38.027Z,1.56
2023-02-27T22:29:04.401Z,1.61
2023-02-27T22:31:31.393Z,1.48
2023-02-27T22:33:58.060Z,1.82
2023-02-27T22:36:24.402Z,1.77
2023-02-27T22:38:50.797Z,1.68
2023-02-27T22:41:17.156Z,1.58
2023-02-27T22:43:43.499Z,1.42
2023-02-27T22:46:09.929Z,1.62
2023-02-27T22:48:36.314Z,1.37
2023-02-27T22:51:02.659Z,1.61
2023-02-27T22:53:29.000Z,1.63
2023-02-27T22:55:55.353Z,1.75
2023-02-27T22:58:21.744Z,1.75
2023-02-27T23:00:48.149Z,1.59
2023-02-27T23:03:14.567Z,1.46
2023-02-27T23:05:40.910Z,1.46
2023-02-27T23:08:07.293Z,1.43
2023-02-27T23:10:33.691Z,1.39
2023-02-27T23:13:00.057Z,1.49
2023-02-27T23:15:26.463Z,1.43
2023-02-27T23:17:58.285Z,1.56
2023-02-27T23:20:25.077Z,1.63
2023-02-27T23:22:51.468Z,1.28
2023-02-27T23:25:17.863Z,1.54
2023-02-27T23:27:44.231Z,1.37
2023-02-27T23:30:10.630Z,1.23
2023-02-27T23:32:37.068Z,1.25
2023-02-27T23:35:03.494Z,1.27
2023-02-27T23:37:29.901Z,1.21
2023-02-27T23:39:56.256Z,1.07
2023-02-27T23:42:22.624Z,1.31
2023-02-27T23:44:49.010Z,1.12
2023-02-27T23:47:15.410Z,1.38
2023-02-27T23:49:41.806Z,1.20
2023-02-27T23:52:08.178Z,1.26
2023-02-27T23:54:34.538Z,1.11
2023-02-27T23:57:00.897Z,1.20
2023-02-27T23:59:27.286Z,1.35
